sensor_id;sensor_type;location;lat;lon;timestamp;P1;durP1;ratioP1;P2;durP2;ratioP2
53594;SDS011;39479;45.720;11.310;2023-04-24T00:01:14;21.90;;;19.25;;
53594;SDS011;39479;45.720;11.310;2023-04-24T00:03:42;24.02;;;21.17;;
53594;SDS011;39479;45.720;11.310;2023-04-24T00:06:08;26.60;;;21.83;;
53594;SDS011;39479;45.720;11.310;2023-04-24T00:08:34;25.13;;;20.25;;
53594;SDS011;39479;45.720;11.310;2023-04-24T00:11:01;25.02;;;21.15;;
53594;SDS011;39479;45.720;11.310;2023-04-24T00:13:27;27.10;;;22.58;;
53594;SDS011;39479;45.720;11.310;2023-04-24T00:15:53;27.33;;;22.92;;
53594;SDS011;39479;45.720;11.310;2023-04-24T00:18:20;25.10;;;21.67;;
53594;SDS011;39479;45.720;11.310;2023-04-24T00:20:46;29.42;;;23.80;;
53594;SDS011;39479;45.720;11.310;2023-04-24T00:23:12;27.52;;;22.70;;
53594;SDS011;39479;45.720;11.310;2023-04-24T00:25:38;29.35;;;24.38;;
53594;SDS011;39479;45.720;11.310;2023-04-24T00:28:05;25.48;;;21.65;;
53594;SDS011;39479;45.720;11.310;2023-04-24T00:30:31;28.92;;;23.15;;
53594;SDS011;39479;45.720;11.310;2023-04-24T00:32:57;28.77;;;23.10;;
53594;SDS011;39479;45.720;11.310;2023-04-24T00:35:23;29.67;;;24.02;;
53594;SDS011;39479;45.720;11.310;2023-04-24T00:37:49;30.25;;;24.73;;
53594;SDS011;39479;45.720;11.310;2023-04-24T00:40:15;32.15;;;26.15;;
53594;SDS011;39479;45.720;11.310;2023-04-24T00:42:41;38.63;;;27.30;;
53594;SDS011;39479;45.720;11.310;2023-04-24T00:45:07;26.60;;;22.60;;
53594;SDS011;39479;45.720;11.310;2023-04-24T00:47:33;27.92;;;23.50;;
53594;SDS011;39479;45.720;11.310;2023-04-24T00:50:02;33.97;;;26.63;;
53594;SDS011;39479;45.720;11.310;2023-04-24T00:52:29;34.08;;;24.95;;
53594;SDS011;39479;45.720;11.310;2023-04-24T00:54:56;33.83;;;28.00;;
53594;SDS011;39479;45.720;11.310;2023-04-24T00:57:22;30.67;;;27.05;;
53594;SDS011;39479;45.720;11.310;2023-04-24T00:59:49;132.45;;;65.18;;
53594;SDS011;39479;45.720;11.310;2023-04-24T01:02:16;46.30;;;33.67;;
53594;SDS011;39479;45.720;11.310;2023-04-24T01:04:42;52.10;;;35.20;;
53594;SDS011;39479;45.720;11.310;2023-04-24T01:07:08;38.03;;;30.50;;
53594;SDS011;39479;45.720;11.310;2023-04-24T01:09:40;80.05;;;47.72;;
53594;SDS011;39479;45.720;11.310;2023-04-24T01:12:06;93.07;;;50.97;;
53594;SDS011;39479;45.720;11.310;2023-04-24T01:14:33;52.55;;;35.92;;
53594;SDS011;39479;45.720;11.310;2023-04-24T01:16:59;64.97;;;40.67;;
53594;SDS011;39479;45.720;11.310;2023-04-24T01:19:25;43.33;;;32.65;;
53594;SDS011;39479;45.720;11.310;2023-04-24T01:21:51;39.08;;;30.05;;
53594;SDS011;39479;45.720;11.310;2023-04-24T01:24:19;41.10;;;30.05;;
53594;SDS011;39479;45.720;11.310;2023-04-24T01:26:45;47.45;;;33.35;;
53594;SDS011;39479;45.720;11.310;2023-04-24T01:29:11;52.97;;;37.55;;
53594;SDS011;39479;45.720;11.310;2023-04-24T01:31:38;45.55;;;31.48;;
53594;SDS011;39479;45.720;11.310;2023-04-24T01:34:04;31.92;;;25.83;;
53594;SDS011;39479;45.720;11.310;2023-04-24T01:36:31;47.47;;;33.30;;
53594;SDS011;39479;45.720;11.310;2023-04-24T01:38:58;31.42;;;25.52;;
53594;SDS011;39479;45.720;11.310;2023-04-24T01:41:24;34.53;;;27.08;;
53594;SDS011;39479;45.720;11.310;2023-04-24T01:43:50;28.08;;;23.15;;
53594;SDS011;39479;45.720;11.310;2023-04-24T01:46:17;31.13;;;22.58;;
53594;SDS011;39479;45.720;11.310;2023-04-24T01:48:44;45.45;;;27.42;;
53594;SDS011;39479;45.720;11.310;2023-04-24T01:51:10;25.60;;;20.98;;
53594;SDS011;39479;45.720;11.310;2023-04-24T01:53:36;26.52;;;21.40;;
53594;SDS011;39479;45.720;11.310;2023-04-24T01:56:02;23.10;;;19.15;;
53594;SDS011;39479;45.720;11.310;2023-04-24T01:58:28;28.80;;;21.98;;
53594;SDS011;39479;45.720;11.310;2023-04-24T02:00:56;25.65;;;20.80;;
53594;SDS011;39479;45.720;11.310;2023-04-24T02:03:24;24.98;;;20.35;;
53594;SDS011;39479;45.720;11.310;2023-04-24T02:05:50;22.75;;;19.02;;
53594;SDS011;39479;45.720;11.310;2023-04-24T02:08:16;24.60;;;21.02;;
53594;SDS011;39479;45.720;11.310;2023-04-24T02:10:42;25.02;;;19.35;;
53594;SDS011;39479;45.720;11.310;2023-04-24T02:13:09;25.08;;;20.58;;
53594;SDS011;39479;45.720;11.310;2023-04-24T02:15:35;23.42;;;19.85;;
53594;SDS011;39479;45.720;11.310;2023-04-24T02:18:01;23.63;;;20.20;;
53594;SDS011;39479;45.720;11.310;2023-04-24T02:20:27;22.63;;;20.20;;
53594;SDS011;39479;45.720;11.310;2023-04-24T02:22:53;25.65;;;21.92;;
53594;SDS011;39479;45.720;11.310;2023-04-24T02:25:20;23.95;;;19.50;;
53594;SDS011;39479;45.720;11.310;2023-04-24T02:27:46;23.95;;;19.75;;
53594;SDS011;39479;45.720;11.310;2023-04-24T02:30:12;26.05;;;20.63;;
53594;SDS011;39479;45.720;11.310;2023-04-24T02:32:38;26.45;;;19.65;;
53594;SDS011;39479;45.720;11.310;2023-04-24T02:35:04;26.20;;;20.40;;
53594;SDS011;39479;45.720;11.310;2023-04-24T02:37:30;22.80;;;19.35;;
53594;SDS011;39479;45.720;11.310;2023-04-24T02:39:56;27.35;;;20.52;;
53594;SDS011;39479;45.720;11.310;2023-04-24T02:42:22;22.10;;;19.27;;
53594;SDS011;39479;45.720;11.310;2023-04-24T02:44:48;26.67;;;19.38;;
53594;SDS011;39479;45.720;11.310;2023-04-24T02:47:16;27.80;;;20.73;;
53594;SDS011;39479;45.720;11.310;2023-04-24T02:49:42;23.95;;;20.92;;
53594;SDS011;39479;45.720;11.310;2023-04-24T02:52:08;26.02;;;21.02;;
53594;SDS011;39479;45.720;11.310;2023-04-24T02:54:34;28.27;;;20.90;;
53594;SDS011;39479;45.720;11.310;2023-04-24T02:57:00;26.08;;;21.20;;
53594;SDS011;39479;45.720;11.310;2023-04-24T02:59:26;24.13;;;21.02;;
53594;SDS011;39479;45.720;11.310;2023-04-24T03:01:54;28.45;;;22.40;;
53594;SDS011;39479;45.720;11.310;2023-04-24T03:04:20;26.35;;;21.42;;
53594;SDS011;39479;45.720;11.310;2023-04-24T03:06:47;24.17;;;18.20;;
53594;SDS011;39479;45.720;11.310;2023-04-24T03:09:13;21.48;;;19.15;;
53594;SDS011;39479;45.720;11.310;2023-04-24T03:11:39;21.45;;;18.98;;
53594;SDS011;39479;45.720;11.310;2023-04-24T03:14:05;24.98;;;20.52;;
53594;SDS011;39479;45.720;11.310;2023-04-24T03:16:31;24.55;;;19.60;;
53594;SDS011;39479;45.720;11.310;2023-04-24T03:18:58;23.65;;;18.52;;
53594;SDS011;39479;45.720;11.310;2023-04-24T03:21:23;23.75;;;18.33;;
53594;SDS011;39479;45.720;11.310;2023-04-24T03:23:50;22.40;;;18.40;;
53594;SDS011;39479;45.720;11.310;2023-04-24T03:26:16;20.88;;;15.50;;
53594;SDS011;39479;45.720;11.310;2023-04-24T03:28:42;20.75;;;15.70;;
53594;SDS011;39479;45.720;11.310;2023-04-24T03:31:08;18.10;;;14.95;;
53594;SDS011;39479;45.720;11.310;2023-04-24T03:33:35;18.40;;;15.02;;
53594;SDS011;39479;45.720;11.310;2023-04-24T03:36:01;22.98;;;16.48;;
53594;SDS011;39479;45.720;11.310;2023-04-24T03:38:27;22.05;;;16.02;;
53594;SDS011;39479;45.720;11.310;2023-04-24T03:40:53;26.77;;;17.02;;
53594;SDS011;39479;45.720;11.310;2023-04-24T03:43:19;23.33;;;17.88;;
53594;SDS011;39479;45.720;11.310;2023-04-24T03:45:45;22.35;;;17.50;;
53594;SDS011;39479;45.720;11.310;2023-04-24T03:48:11;23.50;;;17.90;;
53594;SDS011;39479;45.720;11.310;2023-04-24T03:50:37;21.10;;;16.45;;
53594;SDS011;39479;45.720;11.310;2023-04-24T03:53:03;18.17;;;15.63;;
53594;SDS011;39479;45.720;11.310;2023-04-24T03:55:29;22.52;;;17.23;;
53594;SDS011;39479;45.720;11.310;2023-04-24T03:57:55;16.67;;;14.50;;
53594;SDS011;39479;45.720;11.310;2023-04-24T04:00:21;16.73;;;13.93;;
53594;SDS011;39479;45.720;11.310;2023-04-24T04:02:47;16.88;;;13.52;;
53594;SDS011;39479;45.720;11.310;2023-04-24T04:05:13;17.17;;;13.20;;
53594;SDS011;39479;45.720;11.310;2023-04-24T04:07:39;15.68;;;12.60;;
53594;SDS011;39479;45.720;11.310;2023-04-24T04:10:05;17.90;;;13.00;;
53594;SDS011;39479;45.720;11.310;2023-04-24T04:12:32;19.88;;;13.40;;
53594;SDS011;39479;45.720;11.310;2023-04-24T04:14:58;14.98;;;12.23;;
53594;SDS011;39479;45.720;11.310;2023-04-24T04:17:24;17.15;;;14.23;;
53594;SDS011;39479;45.720;11.310;2023-04-24T04:19:50;16.83;;;14.02;;
53594;SDS011;39479;45.720;11.310;2023-04-24T04:22:16;15.00;;;13.40;;
53594;SDS011;39479;45.720;11.310;2023-04-24T04:24:43;16.60;;;13.00;;
53594;SDS011;39479;45.720;11.310;2023-04-24T04:27:09;15.48;;;13.63;;
53594;SDS011;39479;45.720;11.310;2023-04-24T04:29:35;19.40;;;14.65;;
53594;SDS011;39479;45.720;11.310;2023-04-24T04:32:02;18.42;;;14.23;;
53594;SDS011;39479;45.720;11.310;2023-04-24T04:34:28;15.15;;;13.27;;
53594;SDS011;39479;45.720;11.310;2023-04-24T04:36:54;15.40;;;13.80;;
53594;SDS011;39479;45.720;11.310;2023-04-24T04:39:20;17.00;;;14.70;;
53594;SDS011;39479;45.720;11.310;2023-04-24T04:41:46;19.42;;;14.85;;
53594;SDS011;39479;45.720;11.310;2023-04-24T04:44:13;19.70;;;14.85;;
53594;SDS011;39479;45.720;11.310;2023-04-24T04:46:40;15.75;;;13.93;;
53594;SDS011;39479;45.720;11.310;2023-04-24T04:49:06;19.20;;;15.68;;
53594;SDS011;39479;45.720;11.310;2023-04-24T04:51:33;21.33;;;15.07;;
53594;SDS011;39479;45.720;11.310;2023-04-24T04:53:59;17.52;;;14.77;;
53594;SDS011;39479;45.720;11.310;2023-04-24T04:56:26;17.48;;;15.20;;
53594;SDS011;39479;45.720;11.310;2023-04-24T04:58:52;20.88;;;15.85;;
53594;SDS011;39479;45.720;11.310;2023-04-24T05:01:18;20.45;;;16.95;;
53594;SDS011;39479;45.720;11.310;2023-04-24T05:03:44;19.00;;;15.50;;
53594;SDS011;39479;45.720;11.310;2023-04-24T05:06:10;19.52;;;14.73;;
53594;SDS011;39479;45.720;11.310;2023-04-24T05:08:36;21.52;;;15.07;;
53594;SDS011;39479;45.720;11.310;2023-04-24T05:11:02;17.95;;;15.73;;
53594;SDS011;39479;45.720;11.310;2023-04-24T05:13:28;19.80;;;14.77;;
53594;SDS011;39479;45.720;11.310;2023-04-24T05:15:54;17.20;;;14.73;;
53594;SDS011;39479;45.720;11.310;2023-04-24T05:18:20;16.92;;;13.80;;
53594;SDS011;39479;45.720;11.310;2023-04-24T05:20:46;15.13;;;13.43;;
53594;SDS011;39479;45.720;11.310;2023-04-24T05:23:12;18.88;;;14.65;;
53594;SDS011;39479;45.720;11.310;2023-04-24T05:25:38;18.77;;;14.10;;
53594;SDS011;39479;45.720;11.310;2023-04-24T05:28:05;18.48;;;15.48;;
53594;SDS011;39479;45.720;11.310;2023-04-24T05:30:31;19.52;;;15.35;;
53594;SDS011;39479;45.720;11.310;2023-04-24T05:32:57;19.10;;;16.08;;
53594;SDS011;39479;45.720;11.310;2023-04-24T05:35:23;19.52;;;15.52;;
53594;SDS011;39479;45.720;11.310;2023-04-24T05:37:49;16.08;;;13.25;;
53594;SDS011;39479;45.720;11.310;2023-04-24T05:40:16;16.45;;;13.27;;
53594;SDS011;39479;45.720;11.310;2023-04-24T05:42:42;18.63;;;12.35;;
53594;SDS011;39479;45.720;11.310;2023-04-24T05:45:08;16.23;;;10.88;;
53594;SDS011;39479;45.720;11.310;2023-04-24T05:47:36;13.65;;;12.05;;
53594;SDS011;39479;45.720;11.310;2023-04-24T05:50:02;14.05;;;11.10;;
53594;SDS011;39479;45.720;11.310;2023-04-24T05:52:28;12.70;;;11.35;;
53594;SDS011;39479;45.720;11.310;2023-04-24T05:54:54;13.10;;;11.75;;
53594;SDS011;39479;45.720;11.310;2023-04-24T05:57:21;14.48;;;10.98;;
53594;SDS011;39479;45.720;11.310;2023-04-24T05:59:47;12.93;;;10.88;;
53594;SDS011;39479;45.720;11.310;2023-04-24T06:02:13;11.68;;;10.48;;
53594;SDS011;39479;45.720;11.310;2023-04-24T06:04:39;11.45;;;10.13;;
53594;SDS011;39479;45.720;11.310;2023-04-24T06:07:06;12.25;;;10.90;;
53594;SDS011;39479;45.720;11.310;2023-04-24T06:09:32;14.32;;;12.23;;
53594;SDS011;39479;45.720;11.310;2023-04-24T06:11:58;11.80;;;8.88;;
53594;SDS011;39479;45.720;11.310;2023-04-24T06:14:24;10.55;;;9.27;;
53594;SDS011;39479;45.720;11.310;2023-04-24T06:16:51;11.18;;;9.43;;
53594;SDS011;39479;45.720;11.310;2023-04-24T06:19:17;12.90;;;9.52;;
53594;SDS011;39479;45.720;11.310;2023-04-24T06:21:43;9.75;;;8.75;;
53594;SDS011;39479;45.720;11.310;2023-04-24T06:24:09;7.60;;;5.88;;
53594;SDS011;39479;45.720;11.310;2023-04-24T06:26:35;5.53;;;3.90;;
53594;SDS011;39479;45.720;11.310;2023-04-24T06:29:01;2.97;;;2.63;;
53594;SDS011;39479;45.720;11.310;2023-04-24T06:31:27;3.28;;;1.90;;
53594;SDS011;39479;45.720;11.310;2023-04-24T06:33:53;1.48;;;1.00;;
53594;SDS011;39479;45.720;11.310;2023-04-24T06:36:19;3.97;;;1.20;;
53594;SDS011;39479;45.720;11.310;2023-04-24T06:38:45;1.13;;;0.85;;
53594;SDS011;39479;45.720;11.310;2023-04-24T06:41:11;0.90;;;0.68;;
53594;SDS011;39479;45.720;11.310;2023-04-24T06:43:37;1.20;;;0.90;;
53594;SDS011;39479;45.720;11.310;2023-04-24T06:46:04;1.08;;;0.70;;
53594;SDS011;39479;45.720;11.310;2023-04-24T06:48:30;0.75;;;0.68;;
53594;SDS011;39479;45.720;11.310;2023-04-24T06:50:56;1.80;;;0.80;;
53594;SDS011;39479;45.720;11.310;2023-04-24T06:53:22;1.00;;;0.70;;
53594;SDS011;39479;45.720;11.310;2023-04-24T06:55:48;3.05;;;2.22;;
53594;SDS011;39479;45.720;11.310;2023-04-24T06:58:14;2.85;;;1.20;;
53594;SDS011;39479;45.720;11.310;2023-04-24T07:00:40;0.75;;;0.50;;
53594;SDS011;39479;45.720;11.310;2023-04-24T07:03:07;0.57;;;0.57;;
53594;SDS011;39479;45.720;11.310;2023-04-24T07:05:33;3.20;;;1.15;;
53594;SDS011;39479;45.720;11.310;2023-04-24T07:08:00;2.30;;;1.55;;
53594;SDS011;39479;45.720;11.310;2023-04-24T07:10:26;0.30;;;0.30;;
53594;SDS011;39479;45.720;11.310;2023-04-24T07:12:53;0.82;;;0.65;;
53594;SDS011;39479;45.720;11.310;2023-04-24T07:15:19;2.97;;;1.40;;
53594;SDS011;39479;45.720;11.310;2023-04-24T07:17:45;1.27;;;0.50;;
53594;SDS011;39479;45.720;11.310;2023-04-24T07:20:11;0.30;;;0.30;;
53594;SDS011;39479;45.720;11.310;2023-04-24T07:22:39;0.52;;;0.52;;
53594;SDS011;39479;45.720;11.310;2023-04-24T07:25:05;1.80;;;1.70;;
53594;SDS011;39479;45.720;11.310;2023-04-24T07:27:31;0.17;;;0.17;;
53594;SDS011;39479;45.720;11.310;2023-04-24T07:29:58;0.88;;;0.82;;
53594;SDS011;39479;45.720;11.310;2023-04-24T07:32:24;1.27;;;0.52;;
53594;SDS011;39479;45.720;11.310;2023-04-24T07:34:50;0.38;;;0.38;;
53594;SDS011;39479;45.720;11.310;2023-04-24T07:37:16;0.20;;;0.20;;
53594;SDS011;39479;45.720;11.310;2023-04-24T07:39:42;0.20;;;0.20;;
53594;SDS011;39479;45.720;11.310;2023-04-24T07:42:08;0.65;;;0.50;;
53594;SDS011;39479;45.720;11.310;2023-04-24T07:44:34;1.10;;;0.30;;
53594;SDS011;39479;45.720;11.310;2023-04-24T07:47:01;4.88;;;3.25;;
53594;SDS011;39479;45.720;11.310;2023-04-24T07:49:27;0.60;;;0.60;;
53594;SDS011;39479;45.720;11.310;2023-04-24T07:51:53;0.50;;;0.50;;
53594;SDS011;39479;45.720;11.310;2023-04-24T07:54:19;0.40;;;0.40;;
53594;SDS011;39479;45.720;11.310;2023-04-24T07:56:45;0.95;;;0.60;;
53594;SDS011;39479;45.720;11.310;2023-04-24T07:59:11;0.50;;;0.50;;
53594;SDS011;39479;45.720;11.310;2023-04-24T08:01:37;1.20;;;0.45;;
53594;SDS011;39479;45.720;11.310;2023-04-24T08:04:04;0.93;;;0.25;;
53594;SDS011;39479;45.720;11.310;2023-04-24T08:06:30;1.55;;;1.27;;
53594;SDS011;39479;45.720;11.310;2023-04-24T08:08:57;1.45;;;1.42;;
53594;SDS011;39479;45.720;11.310;2023-04-24T08:11:23;2.47;;;2.00;;
53594;SDS011;39479;45.720;11.310;2023-04-24T08:13:49;33.97;;;26.02;;
53594;SDS011;39479;45.720;11.310;2023-04-24T08:16:16;15.18;;;11.00;;
53594;SDS011;39479;45.720;11.310;2023-04-24T08:18:42;7.82;;;5.57;;
53594;SDS011;39479;45.720;11.310;2023-04-24T08:21:08;5.50;;;3.80;;
53594;SDS011;39479;45.720;11.310;2023-04-24T08:23:34;7.30;;;4.57;;
53594;SDS011;39479;45.720;11.310;2023-04-24T08:26:00;4.75;;;3.63;;
53594;SDS011;39479;45.720;11.310;2023-04-24T08:28:26;4.55;;;3.83;;
53594;SDS011;39479;45.720;11.310;2023-04-24T08:30:52;3.17;;;2.88;;
53594;SDS011;39479;45.720;11.310;2023-04-24T08:33:20;3.00;;;2.70;;
53594;SDS011;39479;45.720;11.310;2023-04-24T08:35:46;3.92;;;3.20;;
53594;SDS011;39479;45.720;11.310;2023-04-24T08:38:12;4.82;;;3.90;;
53594;SDS011;39479;45.720;11.310;2023-04-24T08:40:38;6.68;;;4.50;;
53594;SDS011;39479;45.720;11.310;2023-04-24T08:43:04;4.22;;;3.00;;
53594;SDS011;39479;45.720;11.310;2023-04-24T08:45:31;2.90;;;2.60;;
53594;SDS011;39479;45.720;11.310;2023-04-24T08:47:58;42.13;;;21.17;;
53594;SDS011;39479;45.720;11.310;2023-04-24T08:50:25;8.93;;;5.60;;
53594;SDS011;39479;45.720;11.310;2023-04-24T08:52:51;5.55;;;4.30;;
53594;SDS011;39479;45.720;11.310;2023-04-24T08:55:19;20.27;;;11.93;;
53594;SDS011;39479;45.720;11.310;2023-04-24T08:57:46;4.53;;;2.97;;
53594;SDS011;39479;45.720;11.310;2023-04-24T09:00:15;1.95;;;1.85;;
53594;SDS011;39479;45.720;11.310;2023-04-24T09:02:42;1.70;;;1.60;;
53594;SDS011;39479;45.720;11.310;2023-04-24T09:05:08;1.55;;;1.45;;
53594;SDS011;39479;45.720;11.310;2023-04-24T09:07:35;1.52;;;1.42;;
53594;SDS011;39479;45.720;11.310;2023-04-24T09:10:04;2.60;;;1.80;;
53594;SDS011;39479;45.720;11.310;2023-04-24T09:12:31;1.60;;;1.50;;
53594;SDS011;39479;45.720;11.310;2023-04-24T09:14:57;1.40;;;1.30;;
53594;SDS011;39479;45.720;11.310;2023-04-24T09:17:24;4.88;;;2.92;;
53594;SDS011;39479;45.720;11.310;2023-04-24T09:19:51;7.03;;;4.93;;
53594;SDS011;39479;45.720;11.310;2023-04-24T09:22:18;3.78;;;2.90;;
53594;SDS011;39479;45.720;11.310;2023-04-24T09:24:44;8.10;;;5.47;;
53594;SDS011;39479;45.720;11.310;2023-04-24T09:27:11;3.55;;;3.10;;
53594;SDS011;39479;45.720;11.310;2023-04-24T09:29:37;10.70;;;5.57;;
53594;SDS011;39479;45.720;11.310;2023-04-24T09:32:22;7.75;;;5.60;;
53594;SDS011;39479;45.720;11.310;2023-04-24T09:35:04;5.05;;;4.00;;
53594;SDS011;39479;45.720;11.310;2023-04-24T09:37:34;2.63;;;2.42;;
53594;SDS011;39479;45.720;11.310;2023-04-24T09:40:07;2.00;;;1.90;;
53594;SDS011;39479;45.720;11.310;2023-04-24T09:42:33;5.28;;;3.75;;
53594;SDS011;39479;45.720;11.310;2023-04-24T09:44:59;6.30;;;3.05;;
53594;SDS011;39479;45.720;11.310;2023-04-24T09:47:25;3.28;;;2.40;;
53594;SDS011;39479;45.720;11.310;2023-04-24T09:49:51;6.45;;;4.40;;
53594;SDS011;39479;45.720;11.310;2023-04-24T09:52:23;5.15;;;3.92;;
53594;SDS011;39479;45.720;11.310;2023-04-24T09:54:53;3.53;;;3.08;;
53594;SDS011;39479;45.720;11.310;2023-04-24T09:57:19;3.45;;;3.15;;
53594;SDS011;39479;45.720;11.310;2023-04-24T09:59:45;2.60;;;2.40;;
53594;SDS011;39479;45.720;11.310;2023-04-24T10:02:18;2.97;;;2.70;;
53594;SDS011;39479;45.720;11.310;2023-04-24T10:04:53;2.90;;;2.22;;
53594;SDS011;39479;45.720;11.310;2023-04-24T10:07:20;4.78;;;4.18;;
53594;SDS011;39479;45.720;11.310;2023-04-24T10:09:46;2.03;;;1.90;;
53594;SDS011;39479;45.720;11.310;2023-04-24T10:12:13;4.60;;;3.38;;
53594;SDS011;39479;45.720;11.310;2023-04-24T10:14:40;5.97;;;5.10;;
53594;SDS011;39479;45.720;11.310;2023-04-24T10:17:06;5.18;;;4.47;;
53594;SDS011;39479;45.720;11.310;2023-04-24T10:19:32;6.93;;;5.70;;
53594;SDS011;39479;45.720;11.310;2023-04-24T10:21:59;2.22;;;2.03;;
53594;SDS011;39479;45.720;11.310;2023-04-24T10:24:25;2.92;;;2.58;;
53594;SDS011;39479;45.720;11.310;2023-04-24T10:26:51;2.40;;;2.20;;
53594;SDS011;39479;45.720;11.310;2023-04-24T10:29:18;3.70;;;3.25;;
53594;SDS011;39479;45.720;11.310;2023-04-24T10:31:46;5.25;;;4.40;;
53594;SDS011;39479;45.720;11.310;2023-04-24T10:34:13;2.67;;;2.47;;
53594;SDS011;39479;45.720;11.310;2023-04-24T10:36:41;5.10;;;4.28;;
53594;SDS011;39479;45.720;11.310;2023-04-24T10:39:10;3.10;;;2.80;;
53594;SDS011;39479;45.720;11.310;2023-04-24T10:41:37;5.47;;;4.22;;
53594;SDS011;39479;45.720;11.310;2023-04-24T10:46:32;4.55;;;3.83;;
53594;SDS011;39479;45.720;11.310;2023-04-24T10:48:58;3.67;;;2.80;;
53594;SDS011;39479;45.720;11.310;2023-04-24T10:51:24;2.53;;;2.33;;
53594;SDS011;39479;45.720;11.310;2023-04-24T10:56:55;2.50;;;2.30;;
53594;SDS011;39479;45.720;11.310;2023-04-24T10:59:39;2.88;;;2.55;;
53594;SDS011;39479;45.720;11.310;2023-04-24T11:02:07;3.45;;;2.20;;
53594;SDS011;39479;45.720;11.310;2023-04-24T11:04:33;2.40;;;2.20;;
53594;SDS011;39479;45.720;11.310;2023-04-24T11:07:03;2.63;;;2.20;;
53594;SDS011;39479;45.720;11.310;2023-04-24T11:09:30;2.67;;;2.47;;
53594;SDS011;39479;45.720;11.310;2023-04-24T11:12:03;4.00;;;3.40;;
53594;SDS011;39479;45.720;11.310;2023-04-24T11:14:31;8.60;;;6.43;;
53594;SDS011;39479;45.720;11.310;2023-04-24T11:20:16;3.42;;;3.13;;
53594;SDS011;39479;45.720;11.310;2023-04-24T11:22:42;6.80;;;4.38;;
53594;SDS011;39479;45.720;11.310;2023-04-24T11:25:09;3.85;;;2.60;;
53594;SDS011;39479;45.720;11.310;2023-04-24T11:27:40;2.60;;;2.40;;
53594;SDS011;39479;45.720;11.310;2023-04-24T11:30:07;2.50;;;2.30;;
53594;SDS011;39479;45.720;11.310;2023-04-24T11:35:12;8.85;;;3.13;;
53594;SDS011;39479;45.720;11.310;2023-04-24T11:37:39;2.30;;;2.10;;
53594;SDS011;39479;45.720;11.310;2023-04-24T11:40:06;5.28;;;4.35;;
53594;SDS011;39479;45.720;11.310;2023-04-24T11:42:37;2.67;;;2.47;;
53594;SDS011;39479;45.720;11.310;2023-04-24T11:45:13;3.13;;;2.70;;
53594;SDS011;39479;45.720;11.310;2023-04-24T11:47:39;2.15;;;1.95;;
53594;SDS011;39479;45.720;11.310;2023-04-24T11:50:07;2.30;;;2.10;;
53594;SDS011;39479;45.720;11.310;2023-04-24T11:52:33;2.65;;;2.40;;
53594;SDS011;39479;45.720;11.310;2023-04-24T11:55:02;3.28;;;2.60;;
53594;SDS011;39479;45.720;11.310;2023-04-24T11:57:28;2.35;;;2.15;;
53594;SDS011;39479;45.720;11.310;2023-04-24T11:59:59;2.20;;;2.00;;
53594;SDS011;39479;45.720;11.310;2023-04-24T12:02:26;2.95;;;2.47;;
53594;SDS011;39479;45.720;11.310;2023-04-24T12:04:55;2.30;;;2.10;;
53594;SDS011;39479;45.720;11.310;2023-04-24T12:07:22;2.58;;;2.38;;
53594;SDS011;39479;45.720;11.310;2023-04-24T12:09:55;1.90;;;1.80;;
53594;SDS011;39479;45.720;11.310;2023-04-24T12:12:23;2.88;;;2.60;;
53594;SDS011;39479;45.720;11.310;2023-04-24T12:17:16;2.70;;;2.50;;
53594;SDS011;39479;45.720;11.310;2023-04-24T12:19:46;3.17;;;2.35;;
53594;SDS011;39479;45.720;11.310;2023-04-24T12:22:12;2.58;;;2.38;;
53594;SDS011;39479;45.720;11.310;2023-04-24T12:27:23;2.60;;;2.40;;
53594;SDS011;39479;45.720;11.310;2023-04-24T12:29:56;3.30;;;2.50;;
53594;SDS011;39479;45.720;11.310;2023-04-24T12:32:22;3.20;;;2.50;;
53594;SDS011;39479;45.720;11.310;2023-04-24T12:34:50;2.83;;;2.63;;
53594;SDS011;39479;45.720;11.310;2023-04-24T12:37:16;2.92;;;2.38;;
53594;SDS011;39479;45.720;11.310;2023-04-24T12:40:00;4.32;;;3.92;;
53594;SDS011;39479;45.720;11.310;2023-04-24T12:42:27;2.92;;;2.72;;
53594;SDS011;39479;45.720;11.310;2023-04-24T12:44:59;2.90;;;2.47;;
53594;SDS011;39479;45.720;11.310;2023-04-24T12:47:26;2.97;;;2.58;;
53594;SDS011;39479;45.720;11.310;2023-04-24T12:49:52;2.42;;;2.22;;
53594;SDS011;39479;45.720;11.310;2023-04-24T12:52:20;2.50;;;2.30;;
53594;SDS011;39479;45.720;11.310;2023-04-24T12:54:46;2.42;;;2.22;;
53594;SDS011;39479;45.720;11.310;2023-04-24T12:57:12;2.28;;;2.17;;
53594;SDS011;39479;45.720;11.310;2023-04-24T12:59:38;2.85;;;2.65;;
53594;SDS011;39479;45.720;11.310;2023-04-24T13:02:05;3.20;;;2.60;;
53594;SDS011;39479;45.720;11.310;2023-04-24T13:04:32;5.03;;;3.00;;
53594;SDS011;39479;45.720;11.310;2023-04-24T13:06:58;3.38;;;3.00;;
53594;SDS011;39479;45.720;11.310;2023-04-24T13:09:24;5.40;;;3.85;;
53594;SDS011;39479;45.720;11.310;2023-04-24T13:11:50;3.47;;;3.10;;
53594;SDS011;39479;45.720;11.310;2023-04-24T13:14:16;3.30;;;3.00;;
53594;SDS011;39479;45.720;11.310;2023-04-24T13:16:42;2.95;;;2.72;;
53594;SDS011;39479;45.720;11.310;2023-04-24T13:19:08;5.40;;;4.88;;
53594;SDS011;39479;45.720;11.310;2023-04-24T13:21:34;4.28;;;3.40;;
53594;SDS011;39479;45.720;11.310;2023-04-24T13:24:00;4.20;;;3.80;;
53594;SDS011;39479;45.720;11.310;2023-04-24T13:26:26;5.05;;;3.45;;
53594;SDS011;39479;45.720;11.310;2023-04-24T13:28:52;5.00;;;3.40;;
53594;SDS011;39479;45.720;11.310;2023-04-24T13:31:18;3.92;;;3.60;;
53594;SDS011;39479;45.720;11.310;2023-04-24T13:33:44;4.65;;;4.10;;
53594;SDS011;39479;45.720;11.310;2023-04-24T13:36:10;4.85;;;4.00;;
53594;SDS011;39479;45.720;11.310;2023-04-24T13:38:36;4.47;;;4.05;;
53594;SDS011;39479;45.720;11.310;2023-04-24T13:41:02;4.18;;;3.78;;
53594;SDS011;39479;45.720;11.310;2023-04-24T13:43:28;3.72;;;3.40;;
53594;SDS011;39479;45.720;11.310;2023-04-24T13:45:54;5.60;;;4.05;;
53594;SDS011;39479;45.720;11.310;2023-04-24T13:48:20;5.47;;;4.50;;
53594;SDS011;39479;45.720;11.310;2023-04-24T13:50:46;4.15;;;3.75;;
53594;SDS011;39479;45.720;11.310;2023-04-24T13:53:14;11.57;;;10.00;;
53594;SDS011;39479;45.720;11.310;2023-04-24T13:55:40;7.22;;;5.97;;
53594;SDS011;39479;45.720;11.310;2023-04-24T13:58:06;5.03;;;4.55;;
53594;SDS011;39479;45.720;11.310;2023-04-24T14:00:32;5.00;;;4.50;;
53594;SDS011;39479;45.720;11.310;2023-04-24T14:02:59;4.85;;;4.35;;
53594;SDS011;39479;45.720;11.310;2023-04-24T14:05:25;6.55;;;5.03;;
53594;SDS011;39479;45.720;11.310;2023-04-24T14:07:51;7.00;;;5.70;;
53594;SDS011;39479;45.720;11.310;2023-04-24T14:10:17;6.35;;;4.70;;
53594;SDS011;39479;45.720;11.310;2023-04-24T14:12:43;6.05;;;5.43;;
53594;SDS011;39479;45.720;11.310;2023-04-24T14:15:10;5.28;;;4.43;;
53594;SDS011;39479;45.720;11.310;2023-04-24T14:17:38;4.95;;;4.28;;
53594;SDS011;39479;45.720;11.310;2023-04-24T14:20:04;6.47;;;4.80;;
53594;SDS011;39479;45.720;11.310;2023-04-24T14:22:30;5.85;;;5.13;;
53594;SDS011;39479;45.720;11.310;2023-04-24T14:24:56;6.55;;;5.40;;
53594;SDS011;39479;45.720;11.310;2023-04-24T14:27:24;7.22;;;5.70;;
53594;SDS011;39479;45.720;11.310;2023-04-24T14:29:50;6.63;;;5.47;;
53594;SDS011;39479;45.720;11.310;2023-04-24T14:32:16;5.97;;;5.38;;
53594;SDS011;39479;45.720;11.310;2023-04-24T14:34:42;6.80;;;5.13;;
53594;SDS011;39479;45.720;11.310;2023-04-24T14:37:08;5.55;;;4.97;;